sensor_id;sensor_type;location;lat;lon;timestamp;P1;durP1;ratioP1;P2;durP2;ratioP2
76127;SDS011;64873;50.102;14.434;2023-02-11T00:00:40;44.30;;;21.05;;
76127;SDS011;64873;50.102;14.434;2023-02-11T00:03:07;49.47;;;23.20;;
76127;SDS011;64873;50.102;14.434;2023-02-11T00:05:32;42.92;;;20.83;;
76127;SDS011;64873;50.102;14.434;2023-02-11T00:07:58;40.10;;;20.50;;
76127;SDS011;64873;50.102;14.434;2023-02-11T00:10:24;38.05;;;20.73;;
76127;SDS011;64873;50.102;14.434;2023-02-11T00:12:49;39.67;;;18.98;;
76127;SDS011;64873;50.102;14.434;2023-02-11T00:15:14;45.42;;;21.95;;
76127;SDS011;64873;50.102;14.434;2023-02-11T00:17:40;41.03;;;20.67;;
76127;SDS011;64873;50.102;14.434;2023-02-11T00:20:06;41.92;;;19.67;;
76127;SDS011;64873;50.102;14.434;2023-02-11T00:22:31;41.00;;;18.95;;
76127;SDS011;64873;50.102;14.434;2023-02-11T00:24:57;40.10;;;20.23;;
76127;SDS011;64873;50.102;14.434;2023-02-11T00:27:22;38.80;;;20.17;;
76127;SDS011;64873;50.102;14.434;2023-02-11T00:29:48;38.97;;;20.20;;
76127;SDS011;64873;50.102;14.434;2023-02-11T00:32:13;43.72;;;18.77;;
76127;SDS011;64873;50.102;14.434;2023-02-11T00:34:39;33.53;;;17.70;;
76127;SDS011;64873;50.102;14.434;2023-02-11T00:37:04;36.60;;;19.73;;
76127;SDS011;64873;50.102;14.434;2023-02-11T00:39:30;41.28;;;20.27;;
76127;SDS011;64873;50.102;14.434;2023-02-11T00:41:55;38.53;;;19.00;;
76127;SDS011;64873;50.102;14.434;2023-02-11T00:44:21;42.40;;;21.88;;
76127;SDS011;64873;50.102;14.434;2023-02-11T00:46:47;45.00;;;22.60;;
76127;SDS011;64873;50.102;14.434;2023-02-11T00:49:12;42.15;;;19.80;;
76127;SDS011;64873;50.102;14.434;2023-02-11T00:51:38;42.85;;;21.27;;
76127;SDS011;64873;50.102;14.434;2023-02-11T00:54:03;38.83;;;22.00;;
76127;SDS011;64873;50.102;14.434;2023-02-11T00:56:29;40.17;;;22.05;;
76127;SDS011;64873;50.102;14.434;2023-02-11T00:58:55;39.17;;;20.83;;
76127;SDS011;64873;50.102;14.434;2023-02-11T01:01:20;37.30;;;19.38;;
76127;SDS011;64873;50.102;14.434;2023-02-11T01:03:46;44.40;;;21.63;;
76127;SDS011;64873;50.102;14.434;2023-02-11T01:06:11;36.63;;;19.55;;
76127;SDS011;64873;50.102;14.434;2023-02-11T01:08:37;44.38;;;23.45;;
76127;SDS011;64873;50.102;14.434;2023-02-11T01:11:04;41.63;;;21.42;;
76127;SDS011;64873;50.102;14.434;2023-02-11T01:13:33;43.72;;;23.08;;
76127;SDS011;64873;50.102;14.434;2023-02-11T01:16:01;39.90;;;20.88;;
76127;SDS011;64873;50.102;14.434;2023-02-11T01:18:28;41.90;;;20.42;;
76127;SDS011;64873;50.102;14.434;2023-02-11T01:20:53;40.80;;;20.35;;
76127;SDS011;64873;50.102;14.434;2023-02-11T01:23:19;39.58;;;19.50;;
76127;SDS011;64873;50.102;14.434;2023-02-11T01:25:45;43.28;;;22.88;;
76127;SDS011;64873;50.102;14.434;2023-02-11T01:28:18;43.67;;;24.73;;
76127;SDS011;64873;50.102;14.434;2023-02-11T01:30:45;45.30;;;22.63;;
76127;SDS011;64873;50.102;14.434;2023-02-11T01:33:11;42.28;;;21.35;;
76127;SDS011;64873;50.102;14.434;2023-02-11T01:35:37;46.88;;;22.15;;
76127;SDS011;64873;50.102;14.434;2023-02-11T01:38:03;41.83;;;21.35;;
76127;SDS011;64873;50.102;14.434;2023-02-11T01:40:28;43.92;;;21.75;;
76127;SDS011;64873;50.102;14.434;2023-02-11T01:42:54;48.35;;;22.38;;
76127;SDS011;64873;50.102;14.434;2023-02-11T01:48:13;43.00;;;21.58;;
76127;SDS011;64873;50.102;14.434;2023-02-11T01:50:44;39.00;;;19.70;;
76127;SDS011;64873;50.102;14.434;2023-02-11T01:53:14;45.30;;;21.23;;
76127;SDS011;64873;50.102;14.434;2023-02-11T01:55:59;43.35;;;20.42;;
76127;SDS011;64873;50.102;14.434;2023-02-11T01:58:44;40.10;;;21.45;;
76127;SDS011;64873;50.102;14.434;2023-02-11T02:01:15;44.20;;;21.73;;
76127;SDS011;64873;50.102;14.434;2023-02-11T02:03:46;42.58;;;21.52;;
76127;SDS011;64873;50.102;14.434;2023-02-11T02:06:17;45.00;;;21.80;;
76127;SDS011;64873;50.102;14.434;2023-02-11T02:09:06;41.10;;;21.23;;
76127;SDS011;64873;50.102;14.434;2023-02-11T02:11:35;43.22;;;22.15;;
76127;SDS011;64873;50.102;14.434;2023-02-11T02:14:01;47.70;;;24.55;;
76127;SDS011;64873;50.102;14.434;2023-02-11T02:16:31;47.00;;;21.98;;
76127;SDS011;64873;50.102;14.434;2023-02-11T02:32:48;38.75;;;19.40;;
76127;SDS011;64873;50.102;14.434;2023-02-11T02:35:18;44.25;;;20.30;;
76127;SDS011;64873;50.102;14.434;2023-02-11T02:37:58;40.65;;;20.25;;
76127;SDS011;64873;50.102;14.434;2023-02-11T02:40:31;42.10;;;21.15;;
76127;SDS011;64873;50.102;14.434;2023-02-11T02:43:02;40.47;;;21.85;;
76127;SDS011;64873;50.102;14.434;2023-02-11T02:45:28;40.63;;;20.55;;
76127;SDS011;64873;50.102;14.434;2023-02-11T02:47:54;40.17;;;20.33;;
76127;SDS011;64873;50.102;14.434;2023-02-11T02:50:21;37.95;;;20.70;;
76127;SDS011;64873;50.102;14.434;2023-02-11T02:55:21;40.92;;;21.88;;
76127;SDS011;64873;50.102;14.434;2023-02-11T03:03:43;34.40;;;18.40;;
76127;SDS011;64873;50.102;14.434;2023-02-11T03:06:24;43.60;;;23.02;;
76127;SDS011;64873;50.102;14.434;2023-02-11T03:09:18;36.20;;;20.08;;
76127;SDS011;64873;50.102;14.434;2023-02-11T03:11:48;38.05;;;19.88;;
76127;SDS011;64873;50.102;14.434;2023-02-11T03:14:14;34.63;;;18.35;;
76127;SDS011;64873;50.102;14.434;2023-02-11T03:16:42;36.17;;;18.30;;
76127;SDS011;64873;50.102;14.434;2023-02-11T03:19:14;37.78;;;17.52;;
76127;SDS011;64873;50.102;14.434;2023-02-11T03:21:55;34.58;;;17.30;;
76127;SDS011;64873;50.102;14.434;2023-02-11T03:24:32;37.88;;;19.77;;
76127;SDS011;64873;50.102;14.434;2023-02-11T03:27:02;38.05;;;19.00;;
76127;SDS011;64873;50.102;14.434;2023-02-11T03:32:28;39.55;;;19.60;;
76127;SDS011;64873;50.102;14.434;2023-02-11T03:35:14;37.63;;;19.58;;
76127;SDS011;64873;50.102;14.434;2023-02-11T03:37:50;34.72;;;18.45;;
76127;SDS011;64873;50.102;14.434;2023-02-11T03:40:21;39.50;;;19.70;;
76127;SDS011;64873;50.102;14.434;2023-02-11T03:45:42;36.00;;;18.48;;
76127;SDS011;64873;50.102;14.434;2023-02-11T03:49:11;39.38;;;20.50;;
76127;SDS011;64873;50.102;14.434;2023-02-11T03:51:16;35.78;;;19.40;;
76127;SDS011;64873;50.102;14.434;2023-02-11T03:53:44;34.92;;;18.70;;
76127;SDS011;64873;50.102;14.434;2023-02-11T03:56:13;35.55;;;18.60;;
76127;SDS011;64873;50.102;14.434;2023-02-11T03:58:43;36.47;;;18.60;;
76127;SDS011;64873;50.102;14.434;2023-02-11T04:01:10;36.20;;;19.23;;
76127;SDS011;64873;50.102;14.434;2023-02-11T04:03:35;36.72;;;18.73;;
76127;SDS011;64873;50.102;14.434;2023-02-11T04:06:01;36.78;;;19.75;;
76127;SDS011;64873;50.102;14.434;2023-02-11T04:08:27;36.63;;;18.65;;
76127;SDS011;64873;50.102;14.434;2023-02-11T04:10:52;34.97;;;18.40;;
76127;SDS011;64873;50.102;14.434;2023-02-11T04:13:18;35.00;;;18.13;;
76127;SDS011;64873;50.102;14.434;2023-02-11T04:15:43;38.45;;;19.67;;
76127;SDS011;64873;50.102;14.434;2023-02-11T04:18:09;34.42;;;18.17;;
76127;SDS011;64873;50.102;14.434;2023-02-11T04:20:34;34.50;;;17.65;;
76127;SDS011;64873;50.102;14.434;2023-02-11T04:22:59;38.60;;;19.02;;
76127;SDS011;64873;50.102;14.434;2023-02-11T04:25:25;41.75;;;19.85;;
76127;SDS011;64873;50.102;14.434;2023-02-11T04:27:51;40.75;;;18.95;;
76127;SDS011;64873;50.102;14.434;2023-02-11T04:30:16;33.15;;;17.63;;
76127;SDS011;64873;50.102;14.434;2023-02-11T04:32:42;39.17;;;19.05;;
76127;SDS011;64873;50.102;14.434;2023-02-11T04:35:07;36.45;;;18.98;;
76127;SDS011;64873;50.102;14.434;2023-02-11T04:37:33;36.20;;;20.05;;
76127;SDS011;64873;50.102;14.434;2023-02-11T04:39:59;34.35;;;18.50;;
76127;SDS011;64873;50.102;14.434;2023-02-11T04:42:25;37.55;;;17.48;;
76127;SDS011;64873;50.102;14.434;2023-02-11T04:44:50;34.90;;;18.08;;
76127;SDS011;64873;50.102;14.434;2023-02-11T04:47:16;37.00;;;19.55;;
76127;SDS011;64873;50.102;14.434;2023-02-11T04:49:42;37.88;;;18.70;;
76127;SDS011;64873;50.102;14.434;2023-02-11T04:52:07;35.08;;;17.35;;
76127;SDS011;64873;50.102;14.434;2023-02-11T04:54:33;30.48;;;16.00;;
76127;SDS011;64873;50.102;14.434;2023-02-11T04:56:58;33.25;;;18.50;;
76127;SDS011;64873;50.102;14.434;2023-02-11T04:59:24;33.55;;;17.80;;
76127;SDS011;64873;50.102;14.434;2023-02-11T05:01:49;33.63;;;17.33;;
76127;SDS011;64873;50.102;14.434;2023-02-11T05:04:15;34.97;;;17.02;;
76127;SDS011;64873;50.102;14.434;2023-02-11T05:06:41;38.72;;;18.02;;
76127;SDS011;64873;50.102;14.434;2023-02-11T05:09:06;33.55;;;16.90;;
76127;SDS011;64873;50.102;14.434;2023-02-11T05:11:34;33.35;;;17.00;;
76127;SDS011;64873;50.102;14.434;2023-02-11T05:14:00;40.90;;;18.88;;
76127;SDS011;64873;50.102;14.434;2023-02-11T05:16:26;37.28;;;18.00;;
76127;SDS011;64873;50.102;14.434;2023-02-11T05:18:52;35.47;;;17.88;;
76127;SDS011;64873;50.102;14.434;2023-02-11T05:21:19;31.77;;;16.40;;
76127;SDS011;64873;50.102;14.434;2023-02-11T05:23:45;31.83;;;17.55;;
76127;SDS011;64873;50.102;14.434;2023-02-11T05:26:11;37.53;;;19.88;;
76127;SDS011;64873;50.102;14.434;2023-02-11T05:28:37;34.78;;;19.05;;
76127;SDS011;64873;50.102;14.434;2023-02-11T05:31:05;36.65;;;19.52;;
76127;SDS011;64873;50.102;14.434;2023-02-11T05:33:31;37.70;;;19.70;;
76127;SDS011;64873;50.102;14.434;2023-02-11T05:35:58;35.42;;;17.80;;
76127;SDS011;64873;50.102;14.434;2023-02-11T05:38:24;32.13;;;16.63;;
76127;SDS011;64873;50.102;14.434;2023-02-11T05:40:50;35.67;;;18.00;;
76127;SDS011;64873;50.102;14.434;2023-02-11T05:43:15;31.30;;;17.15;;
76127;SDS011;64873;50.102;14.434;2023-02-11T05:45:41;33.22;;;17.58;;
76127;SDS011;64873;50.102;14.434;2023-02-11T05:48:06;30.45;;;16.30;;
76127;SDS011;64873;50.102;14.434;2023-02-11T05:50:32;35.05;;;18.67;;
76127;SDS011;64873;50.102;14.434;2023-02-11T05:52:57;31.10;;;17.17;;
76127;SDS011;64873;50.102;14.434;2023-02-11T05:55:22;31.85;;;17.35;;
76127;SDS011;64873;50.102;14.434;2023-02-11T05:57:48;39.80;;;19.40;;
76127;SDS011;64873;50.102;14.434;2023-02-11T06:00:13;33.63;;;17.45;;
76127;SDS011;64873;50.102;14.434;2023-02-11T06:02:39;34.88;;;16.08;;
76127;SDS011;64873;50.102;14.434;2023-02-11T06:05:05;31.15;;;16.45;;
76127;SDS011;64873;50.102;14.434;2023-02-11T06:07:30;33.75;;;18.30;;
76127;SDS011;64873;50.102;14.434;2023-02-11T06:09:56;32.35;;;18.00;;
76127;SDS011;64873;50.102;14.434;2023-02-11T06:12:21;26.95;;;13.95;;
76127;SDS011;64873;50.102;14.434;2023-02-11T06:14:48;30.67;;;16.77;;
76127;SDS011;64873;50.102;14.434;2023-02-11T06:17:14;31.92;;;16.98;;
76127;SDS011;64873;50.102;14.434;2023-02-11T06:19:39;32.28;;;17.10;;
76127;SDS011;64873;50.102;14.434;2023-02-11T06:22:04;32.53;;;18.35;;
76127;SDS011;64873;50.102;14.434;2023-02-11T06:24:30;30.02;;;15.95;;
76127;SDS011;64873;50.102;14.434;2023-02-11T06:26:56;33.80;;;18.08;;
76127;SDS011;64873;50.102;14.434;2023-02-11T06:29:21;32.78;;;16.48;;
76127;SDS011;64873;50.102;14.434;2023-02-11T06:31:46;34.05;;;16.40;;
76127;SDS011;64873;50.102;14.434;2023-02-11T06:34:12;33.47;;;16.70;;
76127;SDS011;64873;50.102;14.434;2023-02-11T06:36:37;30.35;;;16.17;;
76127;SDS011;64873;50.102;14.434;2023-02-11T06:39:05;32.78;;;16.92;;
76127;SDS011;64873;50.102;14.434;2023-02-11T06:41:30;32.38;;;17.35;;
76127;SDS011;64873;50.102;14.434;2023-02-11T06:43:56;31.92;;;16.70;;
76127;SDS011;64873;50.102;14.434;2023-02-11T06:46:21;31.08;;;17.13;;
76127;SDS011;64873;50.102;14.434;2023-02-11T06:48:47;25.63;;;14.70;;
76127;SDS011;64873;50.102;14.434;2023-02-11T06:51:13;31.58;;;17.13;;
76127;SDS011;64873;50.102;14.434;2023-02-11T06:53:43;31.02;;;15.52;;
76127;SDS011;64873;50.102;14.434;2023-02-11T06:56:11;33.67;;;16.83;;
76127;SDS011;64873;50.102;14.434;2023-02-11T06:58:39;30.58;;;15.18;;
76127;SDS011;64873;50.102;14.434;2023-02-11T07:01:05;34.83;;;17.25;;
76127;SDS011;64873;50.102;14.434;2023-02-11T07:03:33;31.73;;;16.25;;
76127;SDS011;64873;50.102;14.434;2023-02-11T07:06:00;32.40;;;16.15;;
76127;SDS011;64873;50.102;14.434;2023-02-11T07:08:27;31.13;;;16.15;;
76127;SDS011;64873;50.102;14.434;2023-02-11T07:10:52;37.92;;;16.65;;
76127;SDS011;64873;50.102;14.434;2023-02-11T07:13:17;29.40;;;15.63;;
76127;SDS011;64873;50.102;14.434;2023-02-11T07:15:43;35.75;;;16.98;;
76127;SDS011;64873;50.102;14.434;2023-02-11T07:18:08;32.63;;;18.10;;
76127;SDS011;64873;50.102;14.434;2023-02-11T07:20:34;31.38;;;16.33;;
76127;SDS011;64873;50.102;14.434;2023-02-11T07:23:01;32.85;;;16.85;;
76127;SDS011;64873;50.102;14.434;2023-02-11T07:25:26;31.67;;;15.98;;
76127;SDS011;64873;50.102;14.434;2023-02-11T07:27:52;25.58;;;14.70;;
76127;SDS011;64873;50.102;14.434;2023-02-11T07:30:17;29.48;;;16.23;;
76127;SDS011;64873;50.102;14.434;2023-02-11T07:32:43;33.05;;;16.40;;
76127;SDS011;64873;50.102;14.434;2023-02-11T07:35:08;33.05;;;17.00;;
76127;SDS011;64873;50.102;14.434;2023-02-11T07:37:34;31.10;;;15.77;;
76127;SDS011;64873;50.102;14.434;2023-02-11T07:39:59;29.60;;;14.43;;
76127;SDS011;64873;50.102;14.434;2023-02-11T07:42:25;33.25;;;15.75;;
76127;SDS011;64873;50.102;14.434;2023-02-11T07:44:50;31.05;;;16.30;;
76127;SDS011;64873;50.102;14.434;2023-02-11T07:47:16;32.58;;;16.13;;
76127;SDS011;64873;50.102;14.434;2023-02-11T07:49:42;30.02;;;15.15;;
76127;SDS011;64873;50.102;14.434;2023-02-11T07:52:07;31.40;;;15.35;;
76127;SDS011;64873;50.102;14.434;2023-02-11T07:54:33;28.40;;;15.13;;
76127;SDS011;64873;50.102;14.434;2023-02-11T07:56:58;29.88;;;14.93;;
76127;SDS011;64873;50.102;14.434;2023-02-11T07:59:23;26.55;;;14.85;;
76127;SDS011;64873;50.102;14.434;2023-02-11T08:01:49;34.97;;;18.02;;
76127;SDS011;64873;50.102;14.434;2023-02-11T08:04:15;31.50;;;17.20;;
76127;SDS011;64873;50.102;14.434;2023-02-11T08:06:43;33.17;;;18.65;;
76127;SDS011;64873;50.102;14.434;2023-02-11T08:09:10;30.70;;;15.35;;
76127;SDS011;64873;50.102;14.434;2023-02-11T08:11:40;31.80;;;16.23;;
76127;SDS011;64873;50.102;14.434;2023-02-11T08:14:07;28.75;;;14.75;;
76127;SDS011;64873;50.102;14.434;2023-02-11T08:16:33;30.90;;;15.75;;
76127;SDS011;64873;50.102;14.434;2023-02-11T08:19:01;30.85;;;15.20;;
76127;SDS011;64873;50.102;14.434;2023-02-11T08:21:29;29.58;;;16.48;;
76127;SDS011;64873;50.102;14.434;2023-02-11T08:23:55;26.05;;;15.10;;
76127;SDS011;64873;50.102;14.434;2023-02-11T08:26:25;32.97;;;16.15;;
76127;SDS011;64873;50.102;14.434;2023-02-11T08:28:53;31.27;;;15.88;;
76127;SDS011;64873;50.102;14.434;2023-02-11T08:31:20;31.70;;;16.55;;
76127;SDS011;64873;50.102;14.434;2023-02-11T08:33:46;28.42;;;15.70;;
76127;SDS011;64873;50.102;14.434;2023-02-11T08:36:13;34.80;;;16.02;;
76127;SDS011;64873;50.102;14.434;2023-02-11T08:38:43;31.80;;;17.08;;
76127;SDS011;64873;50.102;14.434;2023-02-11T08:41:08;29.75;;;16.35;;
76127;SDS011;64873;50.102;14.434;2023-02-11T08:43:34;30.25;;;15.55;;
76127;SDS011;64873;50.102;14.434;2023-02-11T08:46:00;31.30;;;15.95;;
76127;SDS011;64873;50.102;14.434;2023-02-11T08:48:26;32.15;;;16.83;;
76127;SDS011;64873;50.102;14.434;2023-02-11T08:50:53;33.83;;;15.55;;
76127;SDS011;64873;50.102;14.434;2023-02-11T08:53:19;30.35;;;14.52;;
76127;SDS011;64873;50.102;14.434;2023-02-11T08:55:51;26.23;;;13.75;;
76127;SDS011;64873;50.102;14.434;2023-02-11T08:58:19;26.38;;;13.88;;
76127;SDS011;64873;50.102;14.434;2023-02-11T09:00:45;31.98;;;15.52;;
76127;SDS011;64873;50.102;14.434;2023-02-11T09:03:11;34.95;;;14.90;;
76127;SDS011;64873;50.102;14.434;2023-02-11T09:05:44;27.35;;;15.18;;
76127;SDS011;64873;50.102;14.434;2023-02-11T09:08:11;27.73;;;14.73;;
76127;SDS011;64873;50.102;14.434;2023-02-11T09:10:37;26.63;;;14.43;;
76127;SDS011;64873;50.102;14.434;2023-02-11T09:13:03;27.15;;;14.63;;
76127;SDS011;64873;50.102;14.434;2023-02-11T09:15:29;29.70;;;14.20;;
76127;SDS011;64873;50.102;14.434;2023-02-11T09:17:55;27.48;;;14.13;;
76127;SDS011;64873;50.102;14.434;2023-02-11T09:20:21;28.33;;;13.82;;
76127;SDS011;64873;50.102;14.434;2023-02-11T09:22:46;31.75;;;16.13;;
76127;SDS011;64873;50.102;14.434;2023-02-11T09:25:12;28.73;;;15.25;;
76127;SDS011;64873;50.102;14.434;2023-02-11T09:27:37;27.70;;;14.60;;
76127;SDS011;64873;50.102;14.434;2023-02-11T09:30:03;31.25;;;14.35;;
76127;SDS011;64873;50.102;14.434;2023-02-11T09:32:29;30.63;;;14.82;;
76127;SDS011;64873;50.102;14.434;2023-02-11T09:34:54;27.13;;;14.75;;
76127;SDS011;64873;50.102;14.434;2023-02-11T09:37:20;26.92;;;14.15;;
76127;SDS011;64873;50.102;14.434;2023-02-11T09:39:45;28.48;;;13.73;;
76127;SDS011;64873;50.102;14.434;2023-02-11T09:42:32;29.35;;;15.95;;
76127;SDS011;64873;50.102;14.434;2023-02-11T09:45:24;25.23;;;13.10;;
76127;SDS011;64873;50.102;14.434;2023-02-11T09:47:55;30.67;;;15.68;;
76127;SDS011;64873;50.102;14.434;2023-02-11T09:50:27;25.38;;;14.18;;
76127;SDS011;64873;50.102;14.434;2023-02-11T09:55:42;34.03;;;14.77;;
76127;SDS011;64873;50.102;14.434;2023-02-11T09:58:15;30.52;;;14.98;;
76127;SDS011;64873;50.102;14.434;2023-02-11T10:00:55;31.65;;;15.02;;
76127;SDS011;64873;50.102;14.434;2023-02-11T10:09:10;21.23;;;11.13;;
76127;SDS011;64873;50.102;14.434;2023-02-11T10:12:10;28.40;;;15.88;;
76127;SDS011;64873;50.102;14.434;2023-02-11T10:20:31;31.00;;;16.42;;
76127;SDS011;64873;50.102;14.434;2023-02-11T10:23:07;29.40;;;15.40;;
76127;SDS011;64873;50.102;14.434;2023-02-11T10:25:41;26.67;;;12.80;;
76127;SDS011;64873;50.102;14.434;2023-02-11T10:28:13;28.73;;;14.40;;
76127;SDS011;64873;50.102;14.434;2023-02-11T10:30:58;26.40;;;14.25;;
76127;SDS011;64873;50.102;14.434;2023-02-11T10:36:21;25.88;;;14.50;;
76127;SDS011;64873;50.102;14.434;2023-02-11T10:38:50;33.70;;;15.02;;
76127;SDS011;64873;50.102;14.434;2023-02-11T10:41:16;35.15;;;15.55;;
76127;SDS011;64873;50.102;14.434;2023-02-11T10:43:46;30.63;;;15.00;;
76127;SDS011;64873;50.102;14.434;2023-02-11T10:46:16;34.65;;;18.00;;
76127;SDS011;64873;50.102;14.434;2023-02-11T10:51:21;29.95;;;15.30;;
76127;SDS011;64873;50.102;14.434;2023-02-11T10:56:38;34.28;;;19.77;;
76127;SDS011;64873;50.102;14.434;2023-02-11T10:59:16;25.77;;;14.03;;
76127;SDS011;64873;50.102;14.434;2023-02-11T11:01:55;29.63;;;15.45;;
76127;SDS011;64873;50.102;14.434;2023-02-11T11:07:23;30.40;;;16.15;;
76127;SDS011;64873;50.102;14.434;2023-02-11T11:10:02;28.13;;;14.65;;
76127;SDS011;64873;50.102;14.434;2023-02-11T11:12:48;30.20;;;15.85;;
76127;SDS011;64873;50.102;14.434;2023-02-11T11:15:18;30.23;;;16.30;;
76127;SDS011;64873;50.102;14.434;2023-02-11T11:17:47;33.65;;;16.48;;
76127;SDS011;64873;50.102;14.434;2023-02-11T11:20:26;25.95;;;14.30;;
76127;SDS011;64873;50.102;14.434;2023-02-11T11:23:16;32.83;;;18.55;;
76127;SDS011;64873;50.102;14.434;2023-02-11T11:25:45;26.67;;;14.90;;
76127;SDS011;64873;50.102;14.434;2023-02-11T11:28:40;27.33;;;13.48;;
76127;SDS011;64873;50.102;14.434;2023-02-11T11:31:19;32.35;;;14.85;;
76127;SDS011;64873;50.102;14.434;2023-02-11T11:33:48;29.65;;;14.85;;
76127;SDS011;64873;50.102;14.434;2023-02-11T11:36:21;26.92;;;14.05;;
76127;SDS011;64873;50.102;14.434;2023-02-11T11:38:56;29.08;;;15.27;;
76127;SDS011;64873;50.102;14.434;2023-02-11T11:41:26;26.75;;;14.52;;
76127;SDS011;64873;50.102;14.434;2023-02-11T11:46:42;27.92;;;17.65;;
76127;SDS011;64873;50.102;14.434;2023-02-11T11:49:28;28.90;;;15.60;;
76127;SDS011;64873;50.102;14.434;2023-02-11T11:57:30;26.60;;;13.77;;
76127;SDS011;64873;50.102;14.434;2023-02-11T11:59:59;27.20;;;13.35;;
76127;SDS011;64873;50.102;14.434;2023-02-11T12:32:14;29.70;;;15.85;;
76127;SDS011;64873;50.102;14.434;2023-02-11T12:37:56;28.17;;;14.80;;
76127;SDS011;64873;50.102;14.434;2023-02-11T12:40:34;27.63;;;15.02;;
76127;SDS011;64873;50.102;14.434;2023-02-11T12:43:12;28.92;;;16.33;;
76127;SDS011;64873;50.102;14.434;2023-02-11T12:48:42;29.08;;;14.85;;
76127;SDS011;64873;50.102;14.434;2023-02-11T12:54:19;26.33;;;14.00;;
76127;SDS011;64873;50.102;14.434;2023-02-11T12:59:46;25.48;;;13.52;;
76127;SDS011;64873;50.102;14.434;2023-02-11T13:02:32;30.98;;;17.95;;
76127;SDS011;64873;50.102;14.434;2023-02-11T13:05:00;27.08;;;14.93;;
76127;SDS011;64873;50.102;14.434;2023-02-11T13:07:38;26.55;;;14.20;;
76127;SDS011;64873;50.102;14.434;2023-02-11T13:10:15;25.98;;;14.30;;
76127;SDS011;64873;50.102;14.434;2023-02-11T13:13:15;27.80;;;16.05;;
76127;SDS011;64873;50.102;14.434;2023-02-11T13:15:50;27.55;;;15.82;;
76127;SDS011;64873;50.102;14.434;2023-02-11T13:24:15;26.60;;;15.43;;
76127;SDS011;64873;50.102;14.434;2023-02-11T13:35:42;26.50;;;14.13;;
76127;SDS011;64873;50.102;14.434;2023-02-11T13:43:39;23.50;;;15.02;;
76127;SDS011;64873;50.102;14.434;2023-02-11T13:46:05;21.40;;;11.57;;
76127;SDS011;64873;50.102;14.434;2023-02-11T13:48:36;24.90;;;14.27;;
76127;SDS011;64873;50.102;14.434;2023-02-11T13:51:33;24.88;;;13.20;;
76127;SDS011;64873;50.102;14.434;2023-02-11T13:54:01;26.08;;;14.18;;
76127;SDS011;64873;50.102;14.434;2023-02-11T13:56:36;24.77;;;14.07;;
76127;SDS011;64873;50.102;14.434;2023-02-11T14:10:49;22.38;;;12.23;;
76127;SDS011;64873;50.102;14.434;2023-02-11T14:16:07;23.30;;;12.57;;
76127;SDS011;64873;50.102;14.434;2023-02-11T14:21:22;24.90;;;13.63;;
76127;SDS011;64873;50.102;14.434;2023-02-11T14:26:38;27.15;;;13.32;;
76127;SDS011;64873;50.102;14.434;2023-02-11T14:32:34;21.33;;;12.75;;
76127;SDS011;64873;50.102;14.434;2023-02-11T14:35:10;24.85;;;14.02;;
76127;SDS011;64873;50.102;14.434;2023-02-11T14:43:22;26.33;;;16.33;;
76127;SDS011;64873;50.102;14.434;2023-02-11T14:45:50;24.42;;;13.32;;
76127;SDS011;64873;50.102;14.434;2023-02-11T14:48:19;28.65;;;14.35;;
76127;SDS011;64873;50.102;14.434;2023-02-11T14:50:53;22.83;;;12.57;;
76127;SDS011;64873;50.102;14.434;2023-02-11T14:55:50;27.10;;;14.10;;
76127;SDS011;64873;50.102;14.434;2023-02-11T15:00:55;23.75;;;13.23;;
76127;SDS011;64873;50.102;14.434;2023-02-11T15:03:30;22.23;;;13.15;;
76127;SDS011;64873;50.102;14.434;2023-02-11T15:06:06;24.08;;;13.45;;
76127;SDS011;64873;50.102;14.434;2023-02-11T15:08:50;25.15;;;13.60;;
76127;SDS011;64873;50.102;14.434;2023-02-11T15:11:19;27.52;;;14.50;;
76127;SDS011;64873;50.102;14.434;2023-02-11T15:13:46;27.35;;;13.90;;
76127;SDS011;64873;50.102;14.434;2023-02-11T15:16:22;24.17;;;13.80;;
76127;SDS011;64873;50.102;14.434;2023-02-11T15:19:00;25.60;;;14.00;;
76127;SDS011;64873;50.102;14.434;2023-02-11T15:21:29;27.23;;;15.50;;
76127;SDS011;64873;50.102;14.434;2023-02-11T15:26:25;26.48;;;15.32;;
76127;SDS011;64873;50.102;14.434;2023-02-11T15:28:51;28.30;;;16.90;;
76127;SDS011;64873;50.102;14.434;2023-02-11T15:31:18;25.80;;;14.00;;
76127;SDS011;64873;50.102;14.434;2023-02-11T15:33:47;24.40;;;13.77;;
76127;SDS011;64873;50.102;14.434;2023-02-11T15:36:13;29.27;;;14.77;;
76127;SDS011;64873;50.102;14.434;2023-02-11T15:38:40;30.73;;;14.15;;
76127;SDS011;64873;50.102;14.434;2023-02-11T15:41:06;26.90;;;14.50;;
76127;SDS011;64873;50.102;14.434;2023-02-11T15:43:52;29.40;;;14.57;;
76127;SDS011;64873;50.102;14.434;2023-02-11T15:46:18;25.33;;;13.63;;
76127;SDS011;64873;50.102;14.434;2023-02-11T15:53:47;25.33;;;13.90;;
76127;SDS011;64873;50.102;14.434;2023-02-11T15:56:22;26.83;;;13.93;;
76127;SDS011;64873;50.102;14.434;2023-02-11T15:58:58;27.80;;;14.35;;
76127;SDS011;64873;50.102;14.434;2023-02-11T16:01:32;29.80;;;15.57;;
76127;SDS011;64873;50.102;14.434;2023-02-11T16:03:59;28.77;;;14.65;;
76127;SDS011;64873;50.102;14.434;2023-02-11T16:06:33;29.60;;;15.13;;
76127;SDS011;64873;50.102;14.434;2023-02-11T16:14:27;24.63;;;12.85;;
76127;SDS011;64873;50.102;14.434;2023-02-11T16:17:20;26.73;;;14.35;;
76127;SDS011;64873;50.102;14.434;2023-02-11T16:19:48;22.55;;;13.45;;
76127;SDS011;64873;50.102;14.434;2023-02-11T16:22:17;28.85;;;15.27;;
76127;SDS011;64873;50.102;14.434;2023-02-11T16:24:55;25.90;;;14.82;;
76127;SDS011;64873;50.102;14.434;2023-02-11T16:27:30;26.95;;;15.02;;
76127;SDS011;64873;50.102;14.434;2023-02-11T16:29:58;27.45;;;14.02;;
76127;SDS011;64873;50.102;14.434;2023-02-11T16:32:27;31.10;;;13.45;;
76127;SDS011;64873;50.102;14.434;2023-02-11T16:34:54;22.50;;;13.18;;
76127;SDS011;64873;50.102;14.434;2023-02-11T16:37:22;23.13;;;13.50;;
76127;SDS011;64873;50.102;14.434;2023-02-11T16:39:52;23.60;;;13.00;;
76127;SDS011;64873;50.102;14.434;2023-02-11T16:42:18;25.23;;;14.43;;
76127;SDS011;64873;50.102;14.434;2023-02-11T16:44:43;24.33;;;14.02;;
76127;SDS011;64873;50.102;14.434;2023-02-11T16:47:15;25.33;;;14.23;;
76127;SDS011;64873;50.102;14.434;2023-02-11T16:49:44;23.98;;;15.50;;
76127;SDS011;64873;50.102;14.434;2023-02-11T16:52:13;25.73;;;12.25;;
76127;SDS011;64873;50.102;14.434;2023-02-11T16:54:41;20.55;;;12.20;;
76127;SDS011;64873;50.102;14.434;2023-02-11T16:57:13;20.92;;;13.48;;
76127;SDS011;64873;50.102;14.434;2023-02-11T16:59:39;20.88;;;11.65;;
76127;SDS011;64873;50.102;14.434;2023-02-11T17:02:05;24.60;;;12.68;;
76127;SDS011;64873;50.102;14.434;2023-02-11T17:04:38;18.75;;;10.52;;
76127;SDS011;64873;50.102;14.434;2023-02-11T17:07:03;20.00;;;11.90;;
76127;SDS011;64873;50.102;14.434;2023-02-11T17:09:29;22.08;;;12.13;;
76127;SDS011;64873;50.102;14.434;2023-02-11T17:11:54;23.83;;;13.32;;
76127;SDS011;64873;50.102;14.434;2023-02-11T17:14:20;24.55;;;12.93;;